Terminal Aerodrome Forecast
Issued by NWS

Home | Current Version | Previous Version | Text Only | Print | Product List | Glossary On
Versions: 1 2 3 4 5 6 7 8 9 10 11 12 13 14
000
FTUS45 KRIW 280500
TAFCOD
TAF
KCOD 280525Z 2806/2906 26013G20KT P6SM SCT050 BKN100 WS020/26040KT
     FM281000 24012G18KT P6SM VCSH SCT040 BKN080
     FM282000 03016KT 4SM -SN BR SCT015 OVC025
     FM290200 02014G22KT 2SM -SN BLSN OVC015
      AMD LTD TO CLD VIS AND WIND=

USA.gov is the U.S. government's official web portal to all federal, state and local government web resources and services.